createdAt,value
2018-05-09T00:00:35.415Z,9.94
2018-05-09T00:03:04.439Z,9.99
2018-05-09T00:05:32.682Z,9.95
2018-05-09T00:08:01.711Z,9.93
2018-05-09T00:10:29.958Z,9.90
2018-05-09T00:12:58.991Z,10.23
2018-05-09T00:15:27.248Z,10.17
2018-05-09T00:17:56.266Z,9.93
2018-05-09T00:20:24.521Z,9.83
2018-05-09T00:22:53.540Z,9.78
2018-05-09T00:25:21.783Z,9.99
2018-05-09T00:27:50.036Z,9.89
2018-05-09T00:30:18.279Z,9.89
2018-05-09T00:32:46.534Z,9.80
2018-05-09T00:35:15.556Z,9.75
2018-05-09T00:37:43.815Z,9.67
2018-05-09T00:40:12.834Z,9.67
2018-05-09T00:42:41.074Z,9.67
2018-05-09T00:45:09.315Z,9.64
2018-05-09T00:47:37.576Z,9.71
2018-05-09T00:50:05.839Z,9.71
2018-05-09T00:52:34.070Z,9.78
2018-05-09T00:55:02.321Z,9.66
2018-05-09T00:57:30.570Z,9.65
2018-05-09T00:59:59.578Z,9.55
2018-05-09T01:02:28.599Z,9.47
2018-05-09T01:04:56.846Z,9.40
2018-05-09T01:07:26.072Z,9.37
2018-05-09T01:09:54.319Z,9.36
2018-05-09T01:12:22.575Z,9.66
2018-05-09T01:14:50.819Z,9.41
2018-05-09T01:17:19.080Z,9.33
2018-05-09T01:19:48.092Z,9.31
2018-05-09T01:22:16.347Z,9.33
2018-05-09T01:24:45.364Z,9.33
2018-05-09T01:27:13.639Z,9.26
2018-05-09T01:29:42.658Z,9.18
2018-05-09T01:32:10.910Z,9.16
2018-05-09T01:34:39.932Z,9.10
2018-05-09T01:37:08.167Z,9.06
2018-05-09T01:39:36.426Z,8.94
2018-05-09T01:42:04.672Z,8.83
2018-05-09T01:44:32.929Z,8.74
2018-05-09T01:47:01.935Z,8.63
2018-05-09T01:49:30.189Z,8.52
2018-05-09T01:51:58.444Z,8.44
2018-05-09T01:54:26.702Z,8.35
2018-05-09T01:56:54.947Z,8.32
2018-05-09T01:59:23.278Z,8.25
2018-05-09T02:01:51.511Z,8.24
2018-05-09T02:04:20.540Z,8.16
2018-05-09T02:06:48.774Z,8.11
2018-05-09T02:09:17.794Z,8.07
2018-05-09T02:11:46.048Z,8.00
2018-05-09T02:14:14.296Z,8.01
2018-05-09T02:16:42.546Z,7.94
2018-05-09T02:19:10.797Z,7.88
2018-05-09T02:21:39.807Z,7.82
2018-05-09T02:24:08.865Z,7.73
2018-05-09T02:26:37.063Z,7.72
2018-05-09T02:29:05.312Z,7.65
2018-05-09T02:31:34.500Z,7.61
2018-05-09T02:34:02.788Z,7.57
2018-05-09T02:36:31.041Z,7.51
2018-05-09T02:38:59.312Z,7.43
2018-05-09T02:41:28.320Z,7.35
2018-05-09T02:43:56.573Z,7.32
2018-05-09T02:46:25.595Z,7.30
2018-05-09T02:48:53.835Z,7.26
2018-05-09T02:51:22.092Z,7.22
2018-05-09T02:53:50.335Z,7.25
2018-05-09T02:56:18.591Z,7.20
2018-05-09T02:58:47.602Z,7.17
2018-05-09T03:01:16.637Z,7.22
2018-05-09T03:03:44.877Z,7.09
2018-05-09T03:06:13.904Z,6.94
2018-05-09T03:08:42.157Z,7.00
2018-05-09T03:11:11.175Z,6.87
2018-05-09T03:13:39.415Z,6.89
2018-05-09T03:16:08.436Z,6.88
2018-05-09T03:18:36.687Z,6.91
2018-05-09T03:21:04.956Z,6.83
2018-05-09T03:23:33.205Z,6.90
2018-05-09T03:26:01.455Z,6.70
2018-05-09T03:28:29.707Z,6.69
2018-05-09T03:30:57.971Z,6.67
2018-05-09T03:33:26.211Z,6.57
2018-05-09T03:35:54.469Z,6.51
2018-05-09T03:38:23.469Z,6.47
2018-05-09T03:40:52.492Z,6.46
2018-05-09T03:43:20.727Z,6.55
2018-05-09T03:45:48.983Z,6.45
2018-05-09T03:48:17.237Z,6.44
2018-05-09T03:50:45.495Z,6.43
2018-05-09T03:53:14.584Z,6.43
2018-05-09T03:55:42.759Z,6.42
2018-05-09T03:58:11.768Z,6.57
2018-05-09T04:00:40.752Z,6.62
2018-05-09T04:03:27.306Z,6.66
2018-05-09T04:09:21.257Z,6.70
2018-05-09T04:11:49.500Z,6.83
2018-05-09T04:14:18.503Z,6.91
2018-05-09T04:16:47.523Z,7.01
2018-05-09T04:19:15.770Z,7.09
2018-05-09T04:21:44.785Z,7.20
2018-05-09T04:24:13.050Z,7.38
2018-05-09T04:26:42.086Z,7.66
2018-05-09T04:29:10.326Z,7.68
2018-05-09T04:31:39.339Z,7.77
2018-05-09T04:34:07.593Z,7.90
2018-05-09T04:36:35.866Z,7.85
2018-05-09T04:39:04.122Z,8.17
2018-05-09T04:41:32.384Z,7.97
2018-05-09T04:44:00.623Z,7.76
2018-05-09T04:46:29.647Z,7.69
2018-05-09T04:48:57.891Z,7.69
2018-05-09T04:51:26.151Z,7.76
2018-05-09T04:53:54.391Z,8.13
2018-05-09T04:56:23.884Z,8.36
2018-05-09T04:58:52.892Z,8.48
2018-05-09T05:01:21.153Z,8.58
2018-05-09T05:03:50.176Z,9.19
2018-05-09T05:06:18.420Z,12.97
2018-05-09T05:08:46.675Z,16.31
2018-05-09T05:11:14.927Z,18.67
2018-05-09T05:13:43.184Z,20.22
2018-05-09T05:16:12.203Z,21.23
2018-05-09T05:18:40.536Z,21.67
2018-05-09T05:21:08.792Z,22.27
2018-05-09T05:23:37.053Z,21.90
2018-05-09T05:26:05.307Z,21.88
2018-05-09T05:28:33.573Z,22.79
2018-05-09T05:31:02.601Z,23.67
2018-05-09T05:33:30.859Z,25.34
2018-05-09T05:35:59.873Z,25.31
2018-05-09T05:38:28.133Z,25.76
2018-05-09T05:40:57.152Z,27.12
2018-05-09T05:43:25.421Z,28.45
2018-05-09T05:45:54.431Z,27.34
2018-05-09T05:48:23.546Z,26.66
2018-05-09T05:50:51.811Z,25.72
2018-05-09T05:53:20.076Z,26.27
2018-05-09T05:55:48.351Z,27.70
2018-05-09T05:58:17.372Z,25.94
2018-05-09T06:00:45.637Z,26.52
2018-05-09T06:03:13.900Z,27.00
2018-05-09T06:05:42.930Z,25.96
2018-05-09T06:08:11.186Z,26.57
2018-05-09T06:10:40.208Z,25.32
2018-05-09T06:13:08.472Z,26.67
2018-05-09T06:15:36.730Z,25.04
2018-05-09T06:18:04.992Z,26.54
2018-05-09T06:20:33.242Z,27.09
2018-05-09T06:23:01.503Z,28.54
2018-05-09T06:25:29.760Z,26.89
2018-05-09T06:27:58.801Z,28.16
2018-05-09T06:30:27.049Z,24.80
2018-05-09T06:32:56.063Z,27.24
2018-05-09T06:35:24.330Z,26.88
2018-05-09T06:37:52.584Z,29.16
2018-05-09T06:40:20.846Z,29.26
2018-05-09T06:42:49.090Z,28.52
2018-05-09T06:45:17.355Z,28.73
2018-05-09T06:47:45.602Z,29.87
2018-05-09T06:50:13.865Z,30.22
2018-05-09T06:52:42.116Z,28.12
2018-05-09T06:55:10.380Z,29.59
2018-05-09T06:57:38.623Z,29.80
2018-05-09T07:00:06.891Z,31.25
2018-05-09T07:02:35.148Z,31.45
2018-05-09T07:05:03.409Z,28.98
2018-05-09T07:07:31.664Z,30.08
2018-05-09T07:10:00.690Z,28.23
2018-05-09T07:12:28.940Z,29.06
2018-05-09T07:14:57.971Z,30.85
2018-05-09T07:17:26.215Z,30.80
2018-05-09T07:19:55.248Z,31.35
2018-05-09T07:22:23.507Z,32.81
2018-05-09T07:24:52.527Z,30.33
2018-05-09T07:27:20.782Z,29.65
2018-05-09T07:29:49.855Z,30.60
2018-05-09T07:32:18.112Z,28.03
2018-05-09T07:34:46.384Z,29.91
2018-05-09T07:37:14.641Z,26.77
2018-05-09T07:39:42.904Z,27.31
2018-05-09T07:42:11.223Z,29.33
2018-05-09T07:44:39.430Z,30.19
2018-05-09T07:47:07.686Z,29.67
2018-05-09T07:49:35.948Z,29.33
2018-05-09T07:52:04.199Z,29.99
2018-05-09T07:54:34.150Z,29.08
2018-05-09T07:57:02.412Z,27.66
2018-05-09T07:59:30.663Z,29.27
2018-05-09T08:01:58.937Z,30.96
2018-05-09T08:04:27.184Z,30.33
2018-05-09T08:06:55.448Z,32.44
2018-05-09T08:09:23.699Z,31.50
2018-05-09T08:11:52.729Z,32.15
2018-05-09T08:14:20.979Z,31.63
2018-05-09T08:16:49.484Z,31.49
2018-05-09T08:19:17.741Z,31.53
2018-05-09T08:21:46.759Z,30.18
2018-05-09T08:24:15.007Z,28.75
2018-05-09T08:26:43.271Z,30.08
2018-05-09T08:29:11.532Z,31.30
2018-05-09T08:31:39.795Z,31.10
2018-05-09T08:34:08.046Z,31.41
2018-05-09T08:36:37.074Z,29.89
2018-05-09T08:39:05.333Z,28.75
2018-05-09T08:41:34.352Z,28.64
2018-05-09T08:44:02.761Z,30.80
2018-05-09T08:46:31.635Z,30.48
2018-05-09T08:48:59.878Z,31.84
2018-05-09T08:51:28.913Z,31.87
2018-05-09T08:53:57.168Z,31.11
2018-05-09T08:56:25.422Z,31.75
2018-05-09T08:58:54.443Z,32.01
2018-05-09T09:01:22.713Z,26.77
2018-05-09T09:03:51.734Z,25.48
2018-05-09T09:06:20.007Z,28.95
2018-05-09T09:08:50.266Z,29.71
2018-05-09T09:11:18.526Z,31.36
2018-05-09T09:13:46.775Z,29.17
2018-05-09T09:16:15.807Z,28.98
2018-05-09T09:18:44.131Z,29.88
2018-05-09T09:21:12.323Z,30.11
2018-05-09T09:23:40.589Z,31.89
2018-05-09T09:26:08.826Z,32.93
2018-05-09T09:28:37.096Z,33.07
2018-05-09T09:31:05.339Z,33.42
2018-05-09T09:33:33.620Z,32.42
2018-05-09T09:36:01.896Z,30.80
2018-05-09T09:38:30.155Z,30.75
2018-05-09T09:40:58.406Z,30.05
2018-05-09T09:43:26.668Z,30.37
2018-05-09T09:45:54.921Z,30.62
2018-05-09T09:48:23.183Z,29.68
2018-05-09T09:50:52.674Z,30.35
2018-05-09T09:53:20.944Z,29.23
2018-05-09T09:55:49.187Z,29.15
2018-05-09T09:58:18.293Z,30.04
2018-05-09T10:00:47.519Z,32.08
2018-05-09T10:03:15.784Z,31.61
2018-05-09T10:05:44.037Z,30.65
2018-05-09T10:08:12.516Z,28.69
2018-05-09T10:10:40.762Z,30.24
2018-05-09T10:13:09.020Z,29.48
2018-05-09T10:15:37.586Z,29.05
2018-05-09T10:18:06.613Z,28.62
2018-05-09T10:20:34.869Z,30.84
2018-05-09T10:23:03.894Z,31.32
2018-05-09T10:25:32.152Z,31.24
2018-05-09T10:28:00.410Z,35.71
2018-05-09T10:30:29.422Z,29.33
2018-05-09T10:32:58.450Z,30.89
2018-05-09T10:35:26.707Z,31.55
2018-05-09T10:37:54.979Z,29.24
2018-05-09T10:40:23.994Z,31.93
2018-05-09T10:42:52.830Z,34.06
2018-05-09T10:45:21.080Z,27.59
2018-05-09T10:47:49.331Z,25.06
2018-05-09T10:50:18.358Z,24.91
2018-05-09T10:52:46.612Z,27.01
2018-05-09T10:55:14.882Z,29.97
2018-05-09T10:57:43.890Z,26.99
2018-05-09T11:00:12.145Z,24.69
2018-05-09T11:02:40.411Z,23.62
2018-05-09T11:05:08.693Z,23.56
2018-05-09T11:07:36.923Z,22.41
2018-05-09T11:10:05.196Z,21.91
2018-05-09T11:12:34.214Z,21.45
2018-05-09T11:15:02.492Z,21.53
2018-05-09T11:17:31.052Z,21.38
2018-05-09T11:19:59.300Z,23.47
2018-05-09T11:22:27.561Z,24.12
2018-05-09T11:24:57.055Z,23.97
2018-05-09T11:27:25.308Z,24.09
2018-05-09T11:29:53.572Z,24.80
2018-05-09T11:32:22.582Z,24.49
2018-05-09T11:34:50.859Z,27.03
2018-05-09T11:37:19.881Z,24.77
2018-05-09T11:39:48.139Z,23.25
2018-05-09T11:42:17.168Z,23.39
2018-05-09T11:44:45.444Z,22.59
2018-05-09T11:47:14.519Z,22.95
2018-05-09T11:49:43.535Z,22.58
2018-05-09T11:52:11.801Z,22.78
2018-05-09T11:54:40.821Z,24.03
2018-05-09T11:57:09.083Z,23.01
2018-05-09T11:59:37.330Z,23.65
2018-05-09T12:02:05.587Z,25.02
2018-05-09T12:04:33.848Z,24.39
2018-05-09T12:07:02.115Z,23.36
2018-05-09T12:09:30.364Z,22.83
2018-05-09T12:11:59.392Z,21.93
2018-05-09T12:14:27.635Z,21.27
2018-05-09T12:16:55.903Z,21.13
2018-05-09T12:19:24.158Z,20.87
2018-05-09T12:21:52.419Z,21.01
2018-05-09T12:24:20.668Z,20.94
2018-05-09T12:26:49.701Z,20.38
2018-05-09T12:29:17.955Z,20.73
2018-05-09T12:31:46.227Z,20.39
2018-05-09T12:34:15.245Z,20.98
2018-05-09T12:36:44.395Z,20.66
2018-05-09T12:39:12.644Z,20.24
2018-05-09T12:41:40.904Z,20.13
2018-05-09T12:44:09.162Z,20.94
2018-05-09T12:46:37.415Z,20.80
2018-05-09T12:49:05.668Z,20.98
2018-05-09T12:51:33.927Z,21.27
2018-05-09T12:54:02.180Z,21.03
2018-05-09T12:56:31.204Z,21.87
2018-05-09T12:59:00.310Z,21.82
2018-05-09T13:01:28.575Z,22.26
2018-05-09T13:03:56.846Z,21.82
2018-05-09T13:06:25.851Z,22.19
2018-05-09T13:08:54.115Z,22.28
2018-05-09T13:11:23.383Z,22.70
2018-05-09T13:13:51.638Z,22.90
2018-05-09T13:16:19.903Z,22.68
2018-05-09T13:18:48.168Z,22.97
2018-05-09T13:21:16.433Z,22.19
2018-05-09T13:23:44.687Z,22.78
2018-05-09T13:26:12.944Z,22.82
2018-05-09T13:28:41.208Z,23.24
2018-05-09T13:31:09.464Z,22.45
2018-05-09T13:33:38.494Z,22.15
2018-05-09T13:36:06.747Z,22.23
2018-05-09T13:38:35.779Z,22.57
2018-05-09T13:41:04.034Z,22.87
2018-05-09T13:43:32.294Z,22.33
2018-05-09T13:46:01.399Z,22.94
2018-05-09T13:48:29.584Z,23.24
2018-05-09T13:50:58.595Z,23.25
2018-05-09T13:53:26.889Z,23.12
2018-05-09T13:55:55.146Z,22.93
2018-05-09T13:58:24.168Z,22.49
2018-05-09T14:00:52.428Z,22.18
2018-05-09T14:03:21.456Z,21.85
2018-05-09T14:05:49.707Z,22.25
2018-05-09T14:08:18.740Z,22.05
2018-05-09T14:10:46.991Z,22.34
2018-05-09T14:13:15.251Z,22.04
2018-05-09T14:15:44.267Z,22.00
2018-05-09T14:18:12.530Z,22.30
2018-05-09T14:20:41.559Z,22.93
2018-05-09T14:23:09.823Z,23.11
2018-05-09T14:25:38.836Z,23.30
2018-05-09T14:28:07.095Z,23.43
2018-05-09T14:30:36.134Z,22.50
2018-05-09T14:33:04.388Z,22.96
2018-05-09T14:35:33.494Z,22.99
2018-05-09T14:38:01.748Z,23.05
2018-05-09T14:40:30.779Z,22.82
2018-05-09T14:42:59.044Z,21.99
2018-05-09T14:45:27.301Z,22.09
2018-05-09T14:47:56.314Z,22.29
2018-05-09T14:50:24.580Z,22.79
2018-05-09T14:52:53.623Z,22.73
2018-05-09T14:55:21.885Z,22.69
2018-05-09T14:57:50.132Z,22.29
2018-05-09T15:00:18.421Z,22.20
2018-05-09T15:02:46.659Z,21.05
2018-05-09T15:05:14.919Z,20.61
2018-05-09T15:07:43.177Z,20.30
2018-05-09T15:10:11.431Z,20.08
2018-05-09T15:12:40.451Z,20.07
2018-05-09T15:15:09.484Z,20.50
2018-05-09T15:17:37.745Z,20.62
2018-05-09T15:20:06.020Z,21.18
2018-05-09T15:22:34.263Z,21.41
2018-05-09T15:25:02.531Z,21.96
2018-05-09T15:27:30.791Z,22.38
2018-05-09T15:29:59.050Z,22.64
2018-05-09T15:32:27.302Z,22.85
2018-05-09T15:34:56.329Z,22.55
2018-05-09T15:37:25.431Z,21.71
2018-05-09T15:39:53.709Z,21.25
2018-05-09T15:42:21.949Z,20.98
2018-05-09T15:44:51.087Z,21.39
2018-05-09T15:47:19.223Z,21.30
2018-05-09T15:49:47.541Z,21.30
2018-05-09T15:52:15.788Z,21.24
2018-05-09T15:54:44.047Z,20.82
2018-05-09T15:57:12.291Z,20.55
2018-05-09T15:59:40.555Z,20.43
2018-05-09T16:02:08.833Z,20.98
2018-05-09T16:04:37.076Z,21.31
2018-05-09T16:07:05.896Z,21.50
2018-05-09T16:09:34.927Z,20.99
2018-05-09T16:12:03.186Z,20.32
2018-05-09T16:14:32.195Z,20.25
2018-05-09T16:17:00.455Z,19.41
2018-05-09T16:19:29.473Z,19.52
2018-05-09T16:21:57.740Z,19.83
2018-05-09T16:24:26.751Z,19.59
2018-05-09T16:26:55.024Z,20.25
2018-05-09T16:29:23.270Z,20.39
2018-05-09T16:31:51.531Z,20.57
2018-05-09T16:34:19.788Z,20.52
2018-05-09T16:36:48.045Z,20.34
2018-05-09T16:39:16.308Z,20.17
2018-05-09T16:41:45.331Z,20.37
2018-05-09T16:44:13.586Z,20.57
2018-05-09T16:46:42.609Z,20.46
2018-05-09T16:49:11.685Z,20.62
2018-05-09T16:51:40.712Z,20.58
2018-05-09T16:54:08.970Z,20.49
2018-05-09T16:56:38.009Z,20.36
2018-05-09T16:59:06.261Z,19.89
2018-05-09T17:01:34.608Z,19.41
2018-05-09T17:04:03.536Z,19.34
2018-05-09T17:06:31.796Z,19.19
2018-05-09T17:09:00.820Z,19.16
2018-05-09T17:11:29.081Z,19.12
2018-05-09T17:13:58.097Z,19.09
2018-05-09T17:16:26.359Z,19.17
2018-05-09T17:18:55.390Z,19.02
2018-05-09T17:21:42.181Z,18.71
2018-05-09T17:24:10.422Z,18.42
2018-05-09T17:26:39.467Z,18.42
2018-05-09T17:29:07.743Z,18.45
2018-05-09T17:31:36.003Z,18.28
2018-05-09T17:34:04.253Z,18.28
2018-05-09T17:36:32.592Z,18.16
2018-05-09T17:39:00.770Z,18.10
2018-05-09T17:41:29.040Z,18.03
2018-05-09T17:43:57.291Z,17.94
2018-05-09T17:46:26.319Z,17.89
2018-05-09T17:48:55.821Z,17.74
2018-05-09T17:51:24.093Z,17.57
2018-05-09T17:53:53.110Z,17.38
2018-05-09T17:56:21.389Z,17.27
2018-05-09T17:58:49.681Z,17.28
2018-05-09T18:01:18.664Z,17.31
2018-05-09T18:03:46.915Z,17.04
2018-05-09T18:06:15.951Z,16.99
2018-05-09T18:08:44.203Z,16.94
2018-05-09T18:11:13.216Z,16.81
2018-05-09T18:13:41.483Z,16.84
2018-05-09T18:16:10.515Z,16.94
2018-05-09T18:18:38.783Z,16.89
2018-05-09T18:21:08.292Z,16.82
2018-05-09T18:23:36.545Z,16.80
2018-05-09T18:26:05.561Z,16.68
2018-05-09T18:28:33.932Z,16.48
2018-05-09T18:31:02.201Z,16.22
2018-05-09T18:33:31.245Z,15.75
2018-05-09T18:35:59.491Z,15.58
2018-05-09T18:38:28.527Z,15.14
2018-05-09T18:40:56.797Z,14.84
2018-05-09T18:43:25.055Z,14.54
2018-05-09T18:45:53.334Z,14.40
2018-05-09T18:48:22.382Z,14.54
2018-05-09T18:50:50.645Z,14.74
2018-05-09T18:53:18.908Z,14.65
2018-05-09T18:55:47.156Z,14.48
2018-05-09T18:58:16.184Z,14.27
2018-05-09T19:00:44.440Z,14.02
2018-05-09T19:03:13.560Z,13.67
2018-05-09T19:05:41.803Z,13.70
2018-05-09T19:08:10.063Z,13.36
2018-05-09T19:10:38.311Z,13.08
2018-05-09T19:13:06.571Z,12.96
2018-05-09T19:15:34.822Z,12.90
2018-05-09T19:18:03.078Z,12.74
2018-05-09T19:20:31.332Z,12.70
2018-05-09T19:23:00.059Z,12.57
2018-05-09T19:25:29.018Z,12.46
2018-05-09T19:27:57.280Z,12.33
2018-05-09T19:30:25.531Z,12.20
2018-05-09T19:32:53.803Z,12.13
2018-05-09T19:35:22.057Z,12.07
2018-05-09T19:37:50.323Z,12.23
2018-05-09T19:40:18.567Z,12.38
2018-05-09T19:42:47.599Z,12.38
2018-05-09T19:45:15.848Z,12.39
2018-05-09T19:47:44.935Z,12.32
2018-05-09T19:50:13.144Z,12.09
2018-05-09T19:52:41.399Z,11.87
2018-05-09T19:55:10.441Z,11.62
2018-05-09T19:57:38.676Z,11.50
2018-05-09T20:00:07.711Z,11.34
2018-05-09T20:02:35.963Z,11.21
2018-05-09T20:05:04.998Z,11.07
2018-05-09T20:07:33.253Z,11.01
2018-05-09T20:10:01.505Z,10.94
2018-05-09T20:12:29.783Z,10.86
2018-05-09T20:14:58.035Z,10.84
2018-05-09T20:17:26.283Z,10.77
2018-05-09T20:19:54.547Z,10.72
2018-05-09T20:22:23.568Z,10.65
2018-05-09T20:24:51.845Z,10.63
2018-05-09T20:27:20.097Z,10.98
2018-05-09T20:29:49.110Z,10.72
2018-05-09T20:32:34.910Z,10.66
2018-05-09T20:35:03.164Z,10.62
2018-05-09T20:37:31.410Z,10.56
2018-05-09T20:39:59.671Z,10.61
2018-05-09T20:42:27.952Z,11.06
2018-05-09T20:44:56.211Z,10.70
2018-05-09T20:47:24.463Z,10.64
2018-05-09T20:49:53.495Z,10.62
2018-05-09T20:52:22.820Z,10.59
2018-05-09T20:54:51.085Z,10.50
2018-05-09T20:57:19.336Z,10.87
2018-05-09T20:59:47.602Z,10.95
2018-05-09T21:02:16.619Z,10.66
2018-05-09T21:04:44.879Z,10.61
2018-05-09T21:07:13.891Z,10.66
2018-05-09T21:09:42.157Z,10.52
2018-05-09T21:12:11.172Z,10.47
2018-05-09T21:14:39.445Z,10.34
2018-05-09T21:17:08.442Z,10.23
2018-05-09T21:19:36.712Z,10.15
2018-05-09T21:22:05.723Z,10.12
2018-05-09T21:24:33.991Z,10.17
2018-05-09T21:27:03.051Z,10.12
2018-05-09T21:29:31.257Z,10.16
2018-05-09T21:31:59.518Z,10.17
2018-05-09T21:34:27.771Z,10.24
2018-05-09T21:36:56.035Z,10.24
2018-05-09T21:39:24.299Z,10.32
2018-05-09T21:41:53.307Z,10.78
2018-05-09T21:44:21.568Z,10.53
2018-05-09T21:46:50.603Z,10.54
2018-05-09T21:49:18.856Z,10.46
2018-05-09T21:51:47.130Z,10.34
2018-05-09T21:54:16.157Z,10.21
2018-05-09T21:56:44.434Z,10.19
2018-05-09T21:59:12.680Z,10.21
2018-05-09T22:01:41.715Z,10.20
2018-05-09T22:04:09.971Z,10.38
2018-05-09T22:06:40.253Z,10.28
2018-05-09T22:09:08.508Z,10.22
2018-05-09T22:11:36.759Z,10.24
2018-05-09T22:14:05.782Z,10.23
2018-05-09T22:16:34.035Z,10.28
2018-05-09T22:19:03.059Z,10.61
2018-05-09T22:21:31.327Z,10.57
2018-05-09T22:23:59.562Z,10.17
2018-05-09T22:26:27.835Z,9.91
2018-05-09T22:28:56.076Z,9.81
2018-05-09T22:31:24.334Z,9.80
2018-05-09T22:33:53.343Z,10.19
2018-05-09T22:36:21.604Z,9.91
2018-05-09T22:38:50.615Z,10.05
2018-05-09T22:41:20.111Z,10.19
2018-05-09T22:43:49.176Z,10.03
2018-05-09T22:46:17.411Z,9.95
2018-05-09T22:48:45.652Z,9.89
2018-05-09T22:51:13.902Z,9.80
2018-05-09T22:53:42.158Z,9.80
2018-05-09T22:56:10.415Z,9.80
2018-05-09T22:58:39.428Z,9.84
2018-05-09T23:01:07.684Z,9.88
2018-05-09T23:03:36.683Z,9.80
2018-05-09T23:06:05.709Z,9.90
2018-05-09T23:08:33.956Z,9.86
2018-05-09T23:11:03.167Z,9.84
2018-05-09T23:13:32.192Z,9.92
2018-05-09T23:16:00.447Z,9.95
2018-05-09T23:18:29.455Z,10.28
2018-05-09T23:20:57.722Z,10.27
2018-05-09T23:23:26.727Z,10.32
2018-05-09T23:25:54.987Z,9.87
2018-05-09T23:28:23.227Z,9.73
2018-05-09T23:30:51.480Z,9.74
2018-05-09T23:33:19.719Z,9.74
2018-05-09T23:35:47.962Z,9.69
2018-05-09T23:38:16.217Z,9.66
2018-05-09T23:40:44.483Z,9.62
2018-05-09T23:43:13.496Z,10.01
2018-05-09T23:45:41.741Z,10.05
2018-05-09T23:48:09.987Z,9.98
2018-05-09T23:50:38.231Z,9.81
2018-05-09T23:53:06.491Z,9.53
2018-05-09T23:55:35.594Z,9.46
2018-05-09T23:58:04.515Z,9.46
